createdAt,value
2023-01-02T00:01:45.104Z,42.03
2023-01-02T00:04:47.895Z,41.94
2023-01-02T00:07:50.401Z,42.38
2023-01-02T00:10:53.273Z,43.97
2023-01-02T00:13:57.405Z,44.32
2023-01-02T00:16:59.954Z,45.52
2023-01-02T00:20:02.781Z,47.39
2023-01-02T00:23:05.469Z,48.96
2023-01-02T00:26:08.512Z,49.90
2023-01-02T00:29:14.341Z,50.90
2023-01-02T00:32:17.052Z,51.65
2023-01-02T00:35:19.842Z,52.83
2023-01-02T00:38:22.648Z,53.62
2023-01-02T00:41:25.317Z,54.06
2023-01-02T00:44:29.253Z,54.26
2023-01-02T00:47:31.915Z,54.95
2023-01-02T00:50:34.482Z,55.29
2023-01-02T00:53:37.575Z,55.89
2023-01-02T00:56:40.301Z,56.46
2023-01-02T00:59:44.221Z,57.10
2023-01-02T01:02:46.830Z,57.63
2023-01-02T01:05:49.574Z,57.16
2023-01-02T01:08:52.230Z,57.73
2023-01-02T01:11:54.815Z,58.23
2023-01-02T01:14:59.224Z,58.49
2023-01-02T01:18:01.872Z,58.09
2023-01-02T01:21:07.934Z,58.33
2023-01-02T01:24:10.598Z,58.79
2023-01-02T01:27:13.157Z,58.92
2023-01-02T01:30:17.113Z,58.93
2023-01-02T01:33:19.742Z,59.33
2023-01-02T01:36:23.859Z,59.13
2023-01-02T01:39:26.472Z,58.97
2023-01-02T01:42:33.258Z,58.64
2023-01-02T01:45:37.272Z,58.81
2023-01-02T01:48:39.954Z,58.43
2023-01-02T01:51:46.129Z,58.57
2023-01-02T01:54:53.417Z,58.90
2023-01-02T01:57:58.075Z,58.94
2023-01-02T02:01:02.729Z,58.01
2023-01-02T02:04:05.664Z,58.24
2023-01-02T02:07:08.418Z,58.57
2023-01-02T02:10:12.745Z,58.41
2023-01-02T02:13:15.473Z,58.52
2023-01-02T02:16:29.107Z,58.96
2023-01-02T02:20:00.966Z,58.82
2023-01-02T02:23:33.763Z,58.61
2023-01-02T02:27:00.805Z,59.29
2023-01-02T02:30:12.361Z,59.98
2023-01-02T02:33:24.953Z,59.50
2023-01-02T02:36:30.876Z,59.69
2023-01-02T02:39:39.240Z,59.53
2023-01-02T02:42:46.677Z,59.87
2023-01-02T02:45:56.473Z,59.45
2023-01-02T02:49:05.341Z,59.47
2023-01-02T02:52:09.744Z,60.95
2023-01-02T02:55:15.566Z,60.64
2023-01-02T02:58:20.235Z,61.15
2023-01-02T03:01:30.174Z,60.88
2023-01-02T03:04:33.831Z,59.75
2023-01-02T03:07:39.381Z,57.22
2023-01-02T03:10:48.175Z,55.29
2023-01-02T03:14:00.105Z,54.13
2023-01-02T03:17:05.331Z,52.56
2023-01-02T03:20:10.188Z,49.98
2023-01-02T03:23:16.383Z,49.59
2023-01-02T03:26:21.707Z,48.92
2023-01-02T03:29:29.234Z,47.77
2023-01-02T03:32:35.143Z,47.21
2023-01-02T03:35:41.616Z,47.14
2023-01-02T03:38:46.216Z,47.14
2023-01-02T03:41:53.320Z,46.14
2023-01-02T03:44:59.961Z,46.26
2023-01-02T03:48:09.713Z,46.23
2023-01-02T03:51:12.304Z,46.27
2023-01-02T03:54:15.539Z,46.73
2023-01-02T03:57:24.383Z,46.92
2023-01-02T04:00:31.571Z,46.66
2023-01-02T04:03:37.858Z,46.80
2023-01-02T04:06:43.349Z,46.64
2023-01-02T04:09:46.713Z,46.78
2023-01-02T04:12:52.800Z,46.69
2023-01-02T04:15:56.243Z,46.84
2023-01-02T04:19:03.526Z,46.87
2023-01-02T04:22:09.266Z,46.46
2023-01-02T04:25:14.084Z,46.58
2023-01-02T04:28:19.156Z,46.86
2023-01-02T04:31:24.393Z,46.55
2023-01-02T04:34:29.728Z,46.75
2023-01-02T04:37:35.896Z,47.13
2023-01-02T04:40:38.842Z,47.48
2023-01-02T04:43:41.455Z,49.11
2023-01-02T04:46:44.137Z,49.86
2023-01-02T04:49:48.241Z,51.50
2023-01-02T04:52:50.807Z,52.20
2023-01-02T04:55:56.490Z,52.67
2023-01-02T04:58:59.032Z,54.05
2023-01-02T05:02:01.870Z,53.83
2023-01-02T05:05:07.628Z,54.56
2023-01-02T05:08:15.842Z,55.73
2023-01-02T05:11:20.683Z,55.41
2023-01-02T05:14:23.464Z,56.79
2023-01-02T05:17:25.964Z,57.12
2023-01-02T05:20:29.851Z,57.66
2023-01-02T05:23:50.012Z,58.53
2023-01-02T05:26:52.716Z,59.60
2023-01-02T05:29:55.404Z,59.90
2023-01-02T05:32:58.067Z,60.80
2023-01-02T05:36:02.476Z,60.54
2023-01-02T05:39:08.598Z,60.63
2023-01-02T05:42:11.183Z,61.23
2023-01-02T05:45:13.643Z,61.48
2023-01-02T05:48:16.273Z,61.23
2023-01-02T05:51:20.652Z,62.04
2023-01-02T05:54:23.306Z,61.72
2023-01-02T05:57:26.031Z,62.05
2023-01-02T06:00:28.679Z,61.87
2023-01-02T06:03:31.310Z,62.70
2023-01-02T06:06:36.645Z,62.44
2023-01-02T06:09:39.318Z,63.12
2023-01-02T06:12:41.869Z,63.11
2023-01-02T06:15:45.483Z,62.93
2023-01-02T06:18:48.140Z,63.00
2023-01-02T06:21:52.115Z,63.49
2023-01-02T06:24:54.883Z,63.36
2023-01-02T06:27:57.631Z,63.96
2023-01-02T06:31:01.376Z,64.44
2023-01-02T06:34:03.974Z,64.30
2023-01-02T06:37:10.321Z,64.23
2023-01-02T06:40:13.349Z,63.48
2023-01-02T06:43:15.987Z,63.74
2023-01-02T06:46:20.537Z,63.29
2023-01-02T06:49:23.329Z,62.56
2023-01-02T06:52:28.586Z,63.23
2023-01-02T06:55:31.118Z,62.59
2023-01-02T06:58:35.612Z,63.08
2023-01-02T07:01:38.701Z,63.39
2023-01-02T07:04:41.539Z,63.37
2023-01-02T07:07:45.510Z,63.83
2023-01-02T07:10:52.884Z,64.04
2023-01-02T07:13:56.002Z,63.93
2023-01-02T07:16:58.620Z,63.40
2023-01-02T07:20:02.541Z,63.98
2023-01-02T07:23:06.520Z,63.86
2023-01-02T07:26:09.335Z,63.47
2023-01-02T07:29:12.166Z,64.36
2023-01-02T07:32:14.753Z,64.12
2023-01-02T07:35:17.512Z,63.89
2023-01-02T07:38:21.438Z,63.71
2023-01-02T07:41:25.615Z,64.37
2023-01-02T07:44:28.162Z,64.33
2023-01-02T07:47:30.722Z,64.71
2023-01-02T07:50:33.312Z,64.78
2023-01-02T07:53:38.248Z,64.97
2023-01-02T07:56:40.916Z,64.76
2023-01-02T07:59:44.941Z,64.62
2023-01-02T08:02:49.885Z,64.14
2023-01-02T08:05:52.774Z,63.79
2023-01-02T08:08:56.688Z,63.87
2023-01-02T08:11:59.412Z,63.40
2023-01-02T08:15:02.016Z,63.75
2023-01-02T08:18:04.673Z,62.73
2023-01-02T08:21:08.718Z,62.47
2023-01-02T08:24:12.791Z,62.54
2023-01-02T08:27:15.451Z,61.86
2023-01-02T08:30:18.244Z,61.79
2023-01-02T08:33:21.037Z,60.75
2023-01-02T08:36:23.592Z,60.50
2023-01-02T08:39:27.631Z,60.30
2023-01-02T08:42:30.249Z,59.87
2023-01-02T08:45:32.951Z,60.03
2023-01-02T08:48:36.225Z,59.34
2023-01-02T08:51:39.155Z,59.54
2023-01-02T08:54:43.058Z,59.12
2023-01-02T08:57:45.614Z,59.20
2023-01-02T09:00:48.296Z,59.47
2023-01-02T09:03:51.588Z,59.31
2023-01-02T09:06:54.101Z,59.11
2023-01-02T09:09:58.158Z,59.44
2023-01-02T09:13:00.847Z,60.10
2023-01-02T09:16:03.499Z,59.83
2023-01-02T09:19:06.062Z,60.79
2023-01-02T09:22:09.390Z,60.75
2023-01-02T09:25:14.698Z,60.48
2023-01-02T09:28:20.182Z,59.60
2023-01-02T09:31:23.244Z,58.66
2023-01-02T09:34:25.841Z,58.73
2023-01-02T09:37:28.902Z,57.80
2023-01-02T09:40:33.048Z,54.14
2023-01-02T09:43:38.225Z,53.94
2023-01-02T09:46:45.515Z,52.65
2023-01-02T09:49:49.429Z,51.31
2023-01-02T09:52:56.371Z,49.58
2023-01-02T09:56:05.612Z,48.27
2023-01-02T09:59:13.989Z,45.03
2023-01-02T10:02:27.281Z,43.27
2023-01-02T10:06:00.575Z,41.99
2023-01-02T10:09:08.402Z,40.96
2023-01-02T10:12:16.857Z,40.31
2023-01-02T10:15:23.704Z,38.90
2023-01-02T10:18:31.457Z,38.36
2023-01-02T10:21:35.981Z,37.86
2023-01-02T10:24:42.857Z,37.37
2023-01-02T10:27:50.107Z,36.36
2023-01-02T10:30:56.243Z,36.31
2023-01-02T10:34:00.224Z,36.19
2023-01-02T10:37:08.006Z,35.82
2023-01-02T10:40:11.485Z,35.50
2023-01-02T10:43:16.100Z,35.83
2023-01-02T10:46:18.787Z,35.20
2023-01-02T10:49:21.998Z,34.79
2023-01-02T10:52:27.581Z,34.70
2023-01-02T10:55:31.901Z,37.71
2023-01-02T10:58:36.515Z,39.47
2023-01-02T11:01:50.612Z,39.21
2023-01-02T11:04:53.354Z,40.08
2023-01-02T11:07:56.869Z,41.03
2023-01-02T11:11:01.755Z,41.00
2023-01-02T11:14:09.012Z,37.33
2023-01-02T11:17:15.957Z,37.02
2023-01-02T11:20:29.869Z,34.72
2023-01-02T11:23:36.877Z,33.44
2023-01-02T11:26:40.649Z,32.80
2023-01-02T11:29:47.006Z,32.43
2023-01-02T11:33:02.485Z,32.38
2023-01-02T11:36:16.835Z,32.04
2023-01-02T11:39:22.830Z,32.43
2023-01-02T11:42:47.004Z,32.24
2023-01-02T11:45:51.333Z,32.28
2023-01-02T11:48:57.484Z,31.73
2023-01-02T11:52:03.242Z,33.00
2023-01-02T11:55:16.397Z,32.70
2023-01-02T11:58:24.763Z,32.39
2023-01-02T12:01:34.024Z,32.47
2023-01-02T12:04:36.728Z,32.77
2023-01-02T12:07:43.481Z,32.57
2023-01-02T12:10:52.845Z,32.72
2023-01-02T12:14:02.633Z,32.88
2023-01-02T12:17:12.043Z,32.46
2023-01-02T12:20:24.076Z,33.05
2023-01-02T12:23:51.656Z,32.64
2023-01-02T12:27:00.015Z,32.67
2023-01-02T12:30:10.907Z,33.37
2023-01-02T12:33:36.271Z,33.26
2023-01-02T12:36:50.091Z,33.42
2023-01-02T12:40:28.062Z,32.95
2023-01-02T12:43:41.068Z,33.13
2023-01-02T12:47:11.644Z,32.85
2023-01-02T12:50:28.993Z,32.18
2023-01-02T12:54:19.889Z,32.14
2023-01-02T12:57:21.824Z,32.61
2023-01-02T13:00:49.601Z,32.59
2023-01-02T13:03:58.246Z,32.43
2023-01-02T13:07:05.687Z,32.64
2023-01-02T13:10:14.666Z,32.33
2023-01-02T13:13:17.262Z,31.19
2023-01-02T13:16:25.205Z,30.08
2023-01-02T13:19:35.273Z,30.06
2023-01-02T13:22:44.079Z,31.06
2023-01-02T13:25:48.371Z,31.53
2023-01-02T13:28:55.093Z,30.70
2023-01-02T13:31:59.235Z,31.18
2023-01-02T13:35:03.391Z,32.44
2023-01-02T13:38:08.650Z,33.83
2023-01-02T13:41:15.252Z,34.19
2023-01-02T13:44:17.990Z,34.20
2023-01-02T13:47:30.007Z,34.38
2023-01-02T13:50:37.862Z,34.25
2023-01-02T13:53:43.139Z,34.69
2023-01-02T13:57:16.571Z,34.11
2023-01-02T14:00:35.269Z,34.84
2023-01-02T14:03:38.698Z,34.75
2023-01-02T14:06:46.159Z,34.77
2023-01-02T14:10:15.127Z,35.23
2023-01-02T14:13:25.160Z,35.37
2023-01-02T14:16:44.671Z,35.44
2023-01-02T14:19:47.465Z,35.54
2023-01-02T14:22:51.917Z,35.31
2023-01-02T14:25:56.435Z,35.99
2023-01-02T14:29:00.944Z,35.95
2023-01-02T14:32:07.034Z,36.51
2023-01-02T14:35:25.142Z,36.33
2023-01-02T14:38:30.033Z,36.53
2023-01-02T14:42:31.784Z,36.88
2023-01-02T14:45:36.384Z,37.44
2023-01-02T14:48:43.959Z,37.48
2023-01-02T14:51:48.839Z,37.48
2023-01-02T14:54:54.618Z,37.81
2023-01-02T14:57:57.749Z,37.90
2023-01-02T15:01:04.729Z,38.27
2023-01-02T15:04:17.124Z,38.58
2023-01-02T15:07:25.527Z,39.08
2023-01-02T15:10:28.432Z,39.18
2023-01-02T15:13:33.190Z,39.01
2023-01-02T15:17:00.626Z,39.57
2023-01-02T15:20:03.379Z,39.59
2023-01-02T15:23:06.079Z,39.97
2023-01-02T15:26:33.498Z,40.64
2023-01-02T15:29:37.297Z,41.32
2023-01-02T15:32:48.718Z,41.48
2023-01-02T15:35:55.586Z,42.67
2023-01-02T15:39:04.635Z,42.90
2023-01-02T15:42:29.025Z,43.27
2023-01-02T15:45:31.163Z,43.63
2023-01-02T15:48:35.388Z,44.35
2023-01-02T15:51:42.002Z,44.75
2023-01-02T15:54:45.897Z,46.75
2023-01-02T15:57:53.422Z,47.05
2023-01-02T16:01:14.253Z,47.77
2023-01-02T16:04:26.814Z,48.77
2023-01-02T16:07:29.666Z,49.26
2023-01-02T16:10:32.300Z,48.93
2023-01-02T16:13:54.720Z,48.45
2023-01-02T16:17:02.315Z,48.94
2023-01-02T16:20:11.615Z,49.50
2023-01-02T16:23:17.987Z,49.79
2023-01-02T16:26:21.048Z,50.45
2023-01-02T16:29:24.133Z,51.88
2023-01-02T16:32:29.090Z,51.91
2023-01-02T16:35:34.736Z,51.87
2023-01-02T16:38:47.386Z,52.20
2023-01-02T16:42:11.994Z,53.41
2023-01-02T16:45:16.886Z,53.57
2023-01-02T16:48:21.367Z,54.74
2023-01-02T16:51:25.433Z,54.28
2023-01-02T16:54:28.253Z,54.21
2023-01-02T16:57:31.015Z,54.47
2023-01-02T17:00:39.760Z,54.73
2023-01-02T17:03:46.304Z,54.53
2023-01-02T17:06:50.564Z,55.43
2023-01-02T17:09:53.084Z,55.58
2023-01-02T17:12:55.717Z,55.70
2023-01-02T17:15:58.678Z,56.21
2023-01-02T17:19:01.410Z,56.28
2023-01-02T17:22:05.614Z,56.69
2023-01-02T17:25:10.510Z,56.74
2023-01-02T17:28:13.529Z,56.90
2023-01-02T17:31:19.885Z,56.92
2023-01-02T17:34:25.162Z,57.65
2023-01-02T17:37:29.174Z,57.15
2023-01-02T17:40:32.045Z,57.45
2023-01-02T17:43:34.875Z,58.41
2023-01-02T17:50:00.082Z,58.56
2023-01-02T17:53:04.046Z,58.44
2023-01-02T17:56:21.251Z,58.22
2023-01-02T17:59:25.220Z,58.69
2023-01-02T18:02:28.297Z,59.26
2023-01-02T18:05:31.955Z,59.28
2023-01-02T18:08:37.763Z,59.47
2023-01-02T18:11:40.491Z,59.31
2023-01-02T18:14:45.552Z,59.48
2023-01-02T18:17:48.812Z,60.16
2023-01-02T18:20:51.586Z,60.70
2023-01-02T18:23:58.720Z,60.59
2023-01-02T18:27:11.319Z,60.56
2023-01-02T18:30:18.107Z,60.17
2023-01-02T18:33:21.193Z,60.94
2023-01-02T18:36:25.263Z,61.14
2023-01-02T18:39:34.890Z,62.25
2023-01-02T18:42:37.784Z,62.20
2023-01-02T18:45:40.771Z,61.87
2023-01-02T18:48:43.632Z,61.03
2023-01-02T18:51:46.868Z,60.14
2023-01-02T18:54:55.255Z,59.04
2023-01-02T18:58:01.014Z,59.15
2023-01-02T19:01:16.153Z,59.32
2023-01-02T19:04:27.893Z,59.18
2023-01-02T19:07:33.549Z,58.75
2023-01-02T19:10:39.793Z,58.85
2023-01-02T19:13:41.457Z,58.69
2023-01-02T19:16:44.506Z,59.82
2023-01-02T19:19:47.419Z,58.78
2023-01-02T19:22:50.345Z,60.03
2023-01-02T19:25:55.078Z,60.80
2023-01-02T19:29:00.626Z,60.54
2023-01-02T19:32:05.482Z,60.69
2023-01-02T19:35:51.621Z,61.70
2023-01-02T19:38:54.154Z,61.02
2023-01-02T19:42:15.743Z,60.72
2023-01-02T19:45:19.520Z,62.19
2023-01-02T19:48:22.149Z,63.95
2023-01-02T19:51:25.209Z,65.89
2023-01-02T19:54:27.876Z,65.50
2023-01-02T19:57:31.951Z,64.35
2023-01-02T20:00:34.600Z,65.00
2023-01-02T20:03:37.181Z,64.75
2023-01-02T20:06:39.922Z,64.13
2023-01-02T20:09:42.581Z,64.06
2023-01-02T20:12:46.652Z,64.17
2023-01-02T20:15:49.641Z,64.22
2023-01-02T20:18:52.336Z,64.16
2023-01-02T20:21:55.108Z,64.03
2023-01-02T20:24:57.852Z,63.55
2023-01-02T20:28:03.292Z,63.17
2023-01-02T20:31:06.491Z,63.04
2023-01-02T20:34:09.344Z,64.12
2023-01-02T20:37:12.136Z,63.50
2023-01-02T20:40:14.768Z,63.76
2023-01-02T20:43:18.731Z,63.08
2023-01-02T20:46:21.440Z,63.18
2023-01-02T20:49:25.454Z,63.52
2023-01-02T20:52:28.071Z,62.75
2023-01-02T20:55:30.787Z,62.55
2023-01-02T20:58:35.688Z,63.38
2023-01-02T21:01:38.561Z,62.45
2023-01-02T21:04:41.337Z,62.95
2023-01-02T21:07:44.123Z,62.81
2023-01-02T21:10:46.649Z,63.33
2023-01-02T21:13:50.523Z,63.10
2023-01-02T21:16:54.644Z,62.97
2023-01-02T21:19:57.370Z,61.80
2023-01-02T21:22:59.992Z,62.60
2023-01-02T21:26:02.643Z,61.92
2023-01-02T21:29:06.653Z,62.50
2023-01-02T21:32:09.251Z,62.41
2023-01-02T21:35:11.849Z,62.03
2023-01-02T21:38:14.770Z,62.05
2023-01-02T21:41:34.923Z,62.39
2023-01-02T21:44:39.015Z,62.78
2023-01-02T21:47:41.715Z,62.29
2023-01-02T21:50:44.283Z,62.24
2023-01-02T21:53:47.010Z,62.04
2023-01-02T21:56:49.741Z,61.43
2023-01-02T21:59:53.680Z,61.50
2023-01-02T22:02:56.584Z,61.37
2023-01-02T22:05:59.328Z,61.65
2023-01-02T22:09:02.070Z,61.71
2023-01-02T22:12:07.081Z,61.42
2023-01-02T22:15:12.833Z,61.17
2023-01-02T22:18:15.479Z,61.37
2023-01-02T22:21:18.210Z,61.36
2023-01-02T22:24:23.469Z,61.02
2023-01-02T22:27:26.131Z,60.42
2023-01-02T22:30:34.491Z,60.36
2023-01-02T22:33:38.217Z,59.72
2023-01-02T22:36:40.789Z,60.06
2023-01-02T22:39:43.802Z,59.72
2023-01-02T22:43:01.685Z,59.69
2023-01-02T22:46:10.221Z,59.47
2023-01-02T22:49:14.773Z,59.74
2023-01-02T22:52:17.439Z,59.01
2023-01-02T22:55:21.957Z,59.36
2023-01-02T22:58:25.303Z,59.39
2023-01-02T23:01:33.004Z,59.49
2023-01-02T23:04:36.185Z,59.58
2023-01-02T23:07:38.819Z,59.51
2023-01-02T23:10:44.789Z,59.90
2023-01-02T23:13:54.549Z,59.51
2023-01-02T23:17:18.349Z,59.31
2023-01-02T23:20:20.924Z,59.24
2023-01-02T23:23:23.415Z,59.71
2023-01-02T23:26:29.991Z,59.84
2023-01-02T23:29:33.215Z,59.83
2023-01-02T23:32:37.233Z,59.93
2023-01-02T23:35:39.766Z,59.71
2023-01-02T23:38:43.168Z,60.33
2023-01-02T23:41:46.067Z,59.99
2023-01-02T23:44:48.779Z,60.36
2023-01-02T23:47:52.769Z,60.34
2023-01-02T23:50:58.686Z,60.50
2023-01-02T23:54:01.825Z,60.17
2023-01-02T23:57:04.608Z,60.29
